sensor_id;sensor_type;location;lat;lon;timestamp;P1;durP1;ratioP1;P2;durP2;ratioP2
4519;SDS011;2272;49.226;8.108;2024-03-22T00:02:13;8.73;;;6.80;;
4519;SDS011;2272;49.226;8.108;2024-03-22T00:04:39;6.83;;;6.10;;
4519;SDS011;2272;49.226;8.108;2024-03-22T00:07:06;9.87;;;6.80;;
4519;SDS011;2272;49.226;8.108;2024-03-22T00:09:31;9.10;;;5.83;;
4519;SDS011;2272;49.226;8.108;2024-03-22T00:12:00;8.13;;;5.90;;
4519;SDS011;2272;49.226;8.108;2024-03-22T00:14:25;6.10;;;5.23;;
4519;SDS011;2272;49.226;8.108;2024-03-22T00:16:52;5.73;;;5.13;;
4519;SDS011;2272;49.226;8.108;2024-03-22T00:19:18;7.30;;;5.60;;
4519;SDS011;2272;49.226;8.108;2024-03-22T00:21:44;7.57;;;5.10;;
4519;SDS011;2272;49.226;8.108;2024-03-22T00:24:10;7.43;;;4.83;;
4519;SDS011;2272;49.226;8.108;2024-03-22T00:26:37;5.90;;;4.90;;
4519;SDS011;2272;49.226;8.108;2024-03-22T00:29:04;6.23;;;5.00;;
4519;SDS011;2272;49.226;8.108;2024-03-22T00:31:31;6.53;;;5.07;;
4519;SDS011;2272;49.226;8.108;2024-03-22T00:33:58;4.90;;;4.47;;
4519;SDS011;2272;49.226;8.108;2024-03-22T00:36:23;8.30;;;4.90;;
4519;SDS011;2272;49.226;8.108;2024-03-22T00:38:50;5.27;;;4.70;;
4519;SDS011;2272;49.226;8.108;2024-03-22T00:41:16;5.17;;;4.67;;
4519;SDS011;2272;49.226;8.108;2024-03-22T00:43:42;11.53;;;5.10;;
4519;SDS011;2272;49.226;8.108;2024-03-22T00:46:09;6.30;;;4.87;;
4519;SDS011;2272;49.226;8.108;2024-03-22T00:48:36;6.57;;;5.63;;
4519;SDS011;2272;49.226;8.108;2024-03-22T00:51:02;4.97;;;4.57;;
4519;SDS011;2272;49.226;8.108;2024-03-22T00:53:29;7.00;;;5.30;;
4519;SDS011;2272;49.226;8.108;2024-03-22T00:55:55;6.40;;;4.97;;
4519;SDS011;2272;49.226;8.108;2024-03-22T00:58:24;5.50;;;4.93;;
4519;SDS011;2272;49.226;8.108;2024-03-22T01:00:50;6.00;;;5.20;;
4519;SDS011;2272;49.226;8.108;2024-03-22T01:03:19;8.10;;;5.90;;
4519;SDS011;2272;49.226;8.108;2024-03-22T01:05:44;12.60;;;5.63;;
4519;SDS011;2272;49.226;8.108;2024-03-22T01:08:11;6.23;;;5.60;;
4519;SDS011;2272;49.226;8.108;2024-03-22T01:10:37;5.10;;;4.53;;
4519;SDS011;2272;49.226;8.108;2024-03-22T01:13:04;7.00;;;4.47;;
4519;SDS011;2272;49.226;8.108;2024-03-22T01:15:31;7.43;;;5.10;;
4519;SDS011;2272;49.226;8.108;2024-03-22T01:17:56;7.07;;;5.00;;
4519;SDS011;2272;49.226;8.108;2024-03-22T01:20:25;5.40;;;4.40;;
4519;SDS011;2272;49.226;8.108;2024-03-22T01:22:50;5.93;;;5.37;;
4519;SDS011;2272;49.226;8.108;2024-03-22T01:25:17;7.30;;;4.67;;
4519;SDS011;2272;49.226;8.108;2024-03-22T01:27:43;5.40;;;5.00;;
4519;SDS011;2272;49.226;8.108;2024-03-22T01:30:10;5.50;;;4.93;;
4519;SDS011;2272;49.226;8.108;2024-03-22T01:32:36;5.90;;;4.90;;
4519;SDS011;2272;49.226;8.108;2024-03-22T01:35:03;8.20;;;4.80;;
4519;SDS011;2272;49.226;8.108;2024-03-22T01:37:31;6.73;;;5.27;;
4519;SDS011;2272;49.226;8.108;2024-03-22T01:39:57;6.63;;;5.70;;
4519;SDS011;2272;49.226;8.108;2024-03-22T01:42:23;6.93;;;5.37;;
4519;SDS011;2272;49.226;8.108;2024-03-22T01:44:50;10.70;;;5.57;;
4519;SDS011;2272;49.226;8.108;2024-03-22T01:47:16;7.93;;;4.63;;
4519;SDS011;2272;49.226;8.108;2024-03-22T01:49:42;5.97;;;5.00;;
4519;SDS011;2272;49.226;8.108;2024-03-22T01:52:08;8.93;;;6.23;;
4519;SDS011;2272;49.226;8.108;2024-03-22T01:54:36;7.90;;;5.27;;
4519;SDS011;2272;49.226;8.108;2024-03-22T01:57:02;9.10;;;6.03;;
4519;SDS011;2272;49.226;8.108;2024-03-22T01:59:30;6.27;;;5.67;;
4519;SDS011;2272;49.226;8.108;2024-03-22T02:01:56;5.57;;;4.97;;
4519;SDS011;2272;49.226;8.108;2024-03-22T02:04:22;8.03;;;5.90;;
4519;SDS011;2272;49.226;8.108;2024-03-22T02:06:48;6.97;;;5.97;;
4519;SDS011;2272;49.226;8.108;2024-03-22T02:09:15;7.30;;;6.27;;
4519;SDS011;2272;49.226;8.108;2024-03-22T02:11:42;7.60;;;5.57;;
4519;SDS011;2272;49.226;8.108;2024-03-22T02:14:09;8.17;;;5.40;;
4519;SDS011;2272;49.226;8.108;2024-03-22T02:16:35;14.20;;;4.60;;
4519;SDS011;2272;49.226;8.108;2024-03-22T02:19:01;7.50;;;4.80;;
4519;SDS011;2272;49.226;8.108;2024-03-22T02:21:27;8.07;;;4.70;;
4519;SDS011;2272;49.226;8.108;2024-03-22T02:23:55;6.20;;;4.60;;
4519;SDS011;2272;49.226;8.108;2024-03-22T02:26:21;4.80;;;4.10;;
4519;SDS011;2272;49.226;8.108;2024-03-22T02:28:47;10.27;;;5.20;;
4519;SDS011;2272;49.226;8.108;2024-03-22T02:31:13;5.43;;;4.93;;
4519;SDS011;2272;49.226;8.108;2024-03-22T02:33:40;6.73;;;5.17;;
4519;SDS011;2272;49.226;8.108;2024-03-22T02:36:05;5.17;;;4.67;;
4519;SDS011;2272;49.226;8.108;2024-03-22T02:38:32;5.33;;;4.13;;
4519;SDS011;2272;49.226;8.108;2024-03-22T02:40:59;3.53;;;3.00;;
4519;SDS011;2272;49.226;8.108;2024-03-22T02:43:26;3.77;;;3.50;;
4519;SDS011;2272;49.226;8.108;2024-03-22T02:45:52;4.80;;;3.57;;
4519;SDS011;2272;49.226;8.108;2024-03-22T02:48:18;4.83;;;2.87;;
4519;SDS011;2272;49.226;8.108;2024-03-22T02:50:44;3.30;;;2.97;;
4519;SDS011;2272;49.226;8.108;2024-03-22T02:53:11;3.07;;;2.87;;
4519;SDS011;2272;49.226;8.108;2024-03-22T02:55:37;4.17;;;3.33;;
4519;SDS011;2272;49.226;8.108;2024-03-22T02:58:05;4.40;;;3.03;;
4519;SDS011;2272;49.226;8.108;2024-03-22T03:00:31;5.37;;;3.23;;
4519;SDS011;2272;49.226;8.108;2024-03-22T03:03:01;5.00;;;3.33;;
4519;SDS011;2272;49.226;8.108;2024-03-22T03:05:27;4.00;;;3.13;;
4519;SDS011;2272;49.226;8.108;2024-03-22T03:07:53;7.87;;;3.00;;
4519;SDS011;2272;49.226;8.108;2024-03-22T03:10:20;2.80;;;2.70;;
4519;SDS011;2272;49.226;8.108;2024-03-22T03:12:46;4.97;;;2.87;;
4519;SDS011;2272;49.226;8.108;2024-03-22T03:15:14;3.73;;;3.10;;
4519;SDS011;2272;49.226;8.108;2024-03-22T03:17:41;3.43;;;3.07;;
4519;SDS011;2272;49.226;8.108;2024-03-22T03:20:07;4.50;;;3.30;;
4519;SDS011;2272;49.226;8.108;2024-03-22T03:22:38;5.17;;;2.70;;
4519;SDS011;2272;49.226;8.108;2024-03-22T03:25:04;3.10;;;2.90;;
4519;SDS011;2272;49.226;8.108;2024-03-22T03:27:31;2.97;;;2.77;;
4519;SDS011;2272;49.226;8.108;2024-03-22T03:29:57;3.50;;;3.30;;
4519;SDS011;2272;49.226;8.108;2024-03-22T03:32:25;2.80;;;2.60;;
4519;SDS011;2272;49.226;8.108;2024-03-22T03:34:51;3.23;;;2.93;;
4519;SDS011;2272;49.226;8.108;2024-03-22T03:37:18;2.90;;;2.77;;
4519;SDS011;2272;49.226;8.108;2024-03-22T03:39:43;7.20;;;3.17;;
4519;SDS011;2272;49.226;8.108;2024-03-22T03:42:10;5.37;;;3.33;;
4519;SDS011;2272;49.226;8.108;2024-03-22T03:44:36;3.80;;;3.43;;
4519;SDS011;2272;49.226;8.108;2024-03-22T03:47:03;3.33;;;3.03;;
4519;SDS011;2272;49.226;8.108;2024-03-22T03:49:30;3.40;;;3.20;;
4519;SDS011;2272;49.226;8.108;2024-03-22T03:51:57;5.50;;;3.17;;
4519;SDS011;2272;49.226;8.108;2024-03-22T03:54:22;4.80;;;3.80;;
4519;SDS011;2272;49.226;8.108;2024-03-22T03:56:49;3.70;;;3.37;;
4519;SDS011;2272;49.226;8.108;2024-03-22T03:59:15;4.07;;;3.50;;
4519;SDS011;2272;49.226;8.108;2024-03-22T04:01:41;3.53;;;3.23;;
4519;SDS011;2272;49.226;8.108;2024-03-22T04:04:07;3.30;;;3.10;;
4519;SDS011;2272;49.226;8.108;2024-03-22T04:06:35;3.60;;;3.30;;
4519;SDS011;2272;49.226;8.108;2024-03-22T04:09:01;3.97;;;3.67;;
4519;SDS011;2272;49.226;8.108;2024-03-22T04:11:28;5.60;;;3.63;;
4519;SDS011;2272;49.226;8.108;2024-03-22T04:13:54;3.23;;;3.03;;
4519;SDS011;2272;49.226;8.108;2024-03-22T04:16:20;4.57;;;3.70;;
4519;SDS011;2272;49.226;8.108;2024-03-22T04:18:46;4.73;;;4.03;;
4519;SDS011;2272;49.226;8.108;2024-03-22T04:21:13;4.73;;;3.87;;
4519;SDS011;2272;49.226;8.108;2024-03-22T04:23:40;5.67;;;3.80;;
4519;SDS011;2272;49.226;8.108;2024-03-22T04:26:07;5.17;;;3.20;;
4519;SDS011;2272;49.226;8.108;2024-03-22T04:28:33;6.80;;;3.53;;
4519;SDS011;2272;49.226;8.108;2024-03-22T04:31:00;6.17;;;4.10;;
4519;SDS011;2272;49.226;8.108;2024-03-22T04:33:27;7.13;;;3.80;;
4519;SDS011;2272;49.226;8.108;2024-03-22T04:35:55;4.30;;;3.60;;
4519;SDS011;2272;49.226;8.108;2024-03-22T04:38:21;4.00;;;3.60;;
4519;SDS011;2272;49.226;8.108;2024-03-22T04:40:50;8.57;;;4.00;;
4519;SDS011;2272;49.226;8.108;2024-03-22T04:43:17;3.53;;;3.33;;
4519;SDS011;2272;49.226;8.108;2024-03-22T04:45:44;4.57;;;3.90;;
4519;SDS011;2272;49.226;8.108;2024-03-22T04:48:12;3.97;;;3.67;;
4519;SDS011;2272;49.226;8.108;2024-03-22T04:50:39;7.00;;;3.33;;
4519;SDS011;2272;49.226;8.108;2024-03-22T04:53:05;4.27;;;3.87;;
4519;SDS011;2272;49.226;8.108;2024-03-22T04:55:31;5.40;;;2.93;;
4519;SDS011;2272;49.226;8.108;2024-03-22T04:58:00;3.70;;;3.43;;
4519;SDS011;2272;49.226;8.108;2024-03-22T05:00:26;3.73;;;3.00;;
4519;SDS011;2272;49.226;8.108;2024-03-22T05:02:53;3.70;;;3.40;;
4519;SDS011;2272;49.226;8.108;2024-03-22T05:05:19;4.13;;;3.83;;
4519;SDS011;2272;49.226;8.108;2024-03-22T05:07:45;4.70;;;4.30;;
4519;SDS011;2272;49.226;8.108;2024-03-22T05:10:11;4.43;;;4.13;;
4519;SDS011;2272;49.226;8.108;2024-03-22T05:12:38;6.10;;;4.10;;
4519;SDS011;2272;49.226;8.108;2024-03-22T05:15:06;7.10;;;3.87;;
4519;SDS011;2272;49.226;8.108;2024-03-22T05:17:33;5.03;;;4.00;;
4519;SDS011;2272;49.226;8.108;2024-03-22T05:19:59;7.63;;;4.30;;
4519;SDS011;2272;49.226;8.108;2024-03-22T05:22:27;4.47;;;4.07;;
4519;SDS011;2272;49.226;8.108;2024-03-22T05:24:52;7.00;;;4.50;;
4519;SDS011;2272;49.226;8.108;2024-03-22T05:27:19;4.20;;;3.80;;
4519;SDS011;2272;49.226;8.108;2024-03-22T05:29:45;4.20;;;3.83;;
4519;SDS011;2272;49.226;8.108;2024-03-22T05:32:13;14.93;;;4.57;;
4519;SDS011;2272;49.226;8.108;2024-03-22T05:34:39;5.00;;;4.00;;
4519;SDS011;2272;49.226;8.108;2024-03-22T05:37:05;4.90;;;4.23;;
4519;SDS011;2272;49.226;8.108;2024-03-22T05:39:31;5.60;;;4.40;;
4519;SDS011;2272;49.226;8.108;2024-03-22T05:41:58;8.07;;;6.17;;
4519;SDS011;2272;49.226;8.108;2024-03-22T05:44:24;34.30;;;15.77;;
4519;SDS011;2272;49.226;8.108;2024-03-22T05:46:51;40.83;;;17.23;;
4519;SDS011;2272;49.226;8.108;2024-03-22T05:49:18;29.83;;;13.43;;
4519;SDS011;2272;49.226;8.108;2024-03-22T05:51:45;13.73;;;7.83;;
4519;SDS011;2272;49.226;8.108;2024-03-22T05:54:10;7.07;;;6.30;;
4519;SDS011;2272;49.226;8.108;2024-03-22T05:56:37;7.07;;;4.70;;
4519;SDS011;2272;49.226;8.108;2024-03-22T05:59:03;6.13;;;5.53;;
4519;SDS011;2272;49.226;8.108;2024-03-22T06:01:29;7.27;;;6.40;;
4519;SDS011;2272;49.226;8.108;2024-03-22T06:03:57;10.30;;;6.20;;
4519;SDS011;2272;49.226;8.108;2024-03-22T06:06:25;10.40;;;5.70;;
4519;SDS011;2272;49.226;8.108;2024-03-22T06:08:52;11.20;;;8.00;;
4519;SDS011;2272;49.226;8.108;2024-03-22T06:11:19;7.30;;;5.50;;
4519;SDS011;2272;49.226;8.108;2024-03-22T06:13:46;16.43;;;6.20;;
4519;SDS011;2272;49.226;8.108;2024-03-22T06:16:13;5.37;;;4.83;;
4519;SDS011;2272;49.226;8.108;2024-03-22T06:18:40;16.30;;;4.67;;
4519;SDS011;2272;49.226;8.108;2024-03-22T06:21:06;7.90;;;5.53;;
4519;SDS011;2272;49.226;8.108;2024-03-22T06:23:34;10.67;;;6.87;;
4519;SDS011;2272;49.226;8.108;2024-03-22T06:26:00;6.60;;;5.43;;
4519;SDS011;2272;49.226;8.108;2024-03-22T06:28:27;17.97;;;9.30;;
4519;SDS011;2272;49.226;8.108;2024-03-22T06:30:53;11.23;;;6.30;;
4519;SDS011;2272;49.226;8.108;2024-03-22T06:33:20;20.30;;;10.57;;
4519;SDS011;2272;49.226;8.108;2024-03-22T06:35:46;9.67;;;5.80;;
4519;SDS011;2272;49.226;8.108;2024-03-22T06:38:13;12.53;;;6.50;;
4519;SDS011;2272;49.226;8.108;2024-03-22T06:40:40;18.80;;;9.30;;
4519;SDS011;2272;49.226;8.108;2024-03-22T06:43:07;8.60;;;5.30;;
4519;SDS011;2272;49.226;8.108;2024-03-22T06:45:34;9.33;;;6.60;;
4519;SDS011;2272;49.226;8.108;2024-03-22T06:48:00;17.73;;;7.50;;
4519;SDS011;2272;49.226;8.108;2024-03-22T06:50:26;14.13;;;8.57;;
4519;SDS011;2272;49.226;8.108;2024-03-22T06:52:53;12.90;;;5.50;;
4519;SDS011;2272;49.226;8.108;2024-03-22T06:55:18;7.57;;;5.27;;
4519;SDS011;2272;49.226;8.108;2024-03-22T06:57:47;4.93;;;4.07;;
4519;SDS011;2272;49.226;8.108;2024-03-22T07:00:13;12.07;;;5.30;;
4519;SDS011;2272;49.226;8.108;2024-03-22T07:02:41;3.90;;;3.60;;
4519;SDS011;2272;49.226;8.108;2024-03-22T07:05:08;5.03;;;4.53;;
4519;SDS011;2272;49.226;8.108;2024-03-22T07:07:35;9.00;;;5.60;;
4519;SDS011;2272;49.226;8.108;2024-03-22T07:10:01;7.40;;;4.90;;
4519;SDS011;2272;49.226;8.108;2024-03-22T07:12:28;8.70;;;5.93;;
4519;SDS011;2272;49.226;8.108;2024-03-22T07:14:56;12.10;;;4.83;;
4519;SDS011;2272;49.226;8.108;2024-03-22T07:17:23;16.37;;;5.90;;
4519;SDS011;2272;49.226;8.108;2024-03-22T07:19:49;8.87;;;5.43;;
4519;SDS011;2272;49.226;8.108;2024-03-22T07:22:17;8.30;;;5.17;;
4519;SDS011;2272;49.226;8.108;2024-03-22T07:24:42;11.00;;;6.77;;
4519;SDS011;2272;49.226;8.108;2024-03-22T07:27:09;8.63;;;6.00;;
4519;SDS011;2272;49.226;8.108;2024-03-22T07:29:35;6.50;;;5.70;;
4519;SDS011;2272;49.226;8.108;2024-03-22T07:32:04;9.43;;;5.63;;
4519;SDS011;2272;49.226;8.108;2024-03-22T07:34:31;7.07;;;5.50;;
4519;SDS011;2272;49.226;8.108;2024-03-22T07:36:58;10.40;;;5.97;;
4519;SDS011;2272;49.226;8.108;2024-03-22T07:39:23;5.60;;;4.80;;
4519;SDS011;2272;49.226;8.108;2024-03-22T07:41:50;10.17;;;4.97;;
4519;SDS011;2272;49.226;8.108;2024-03-22T07:44:16;6.00;;;4.20;;
4519;SDS011;2272;49.226;8.108;2024-03-22T07:46:44;5.60;;;4.53;;
4519;SDS011;2272;49.226;8.108;2024-03-22T07:49:12;6.80;;;4.67;;
4519;SDS011;2272;49.226;8.108;2024-03-22T07:51:39;14.10;;;6.90;;
4519;SDS011;2272;49.226;8.108;2024-03-22T07:54:05;10.73;;;5.03;;
4519;SDS011;2272;49.226;8.108;2024-03-22T07:56:32;6.40;;;4.40;;
4519;SDS011;2272;49.226;8.108;2024-03-22T07:58:58;10.73;;;5.80;;
4519;SDS011;2272;49.226;8.108;2024-03-22T08:01:25;6.63;;;5.57;;
4519;SDS011;2272;49.226;8.108;2024-03-22T08:03:50;18.43;;;6.10;;
4519;SDS011;2272;49.226;8.108;2024-03-22T08:06:19;9.27;;;5.73;;
4519;SDS011;2272;49.226;8.108;2024-03-22T08:08:45;6.37;;;5.43;;
4519;SDS011;2272;49.226;8.108;2024-03-22T08:11:12;9.60;;;5.47;;
4519;SDS011;2272;49.226;8.108;2024-03-22T08:13:39;7.70;;;6.10;;
4519;SDS011;2272;49.226;8.108;2024-03-22T08:16:05;13.60;;;6.30;;
4519;SDS011;2272;49.226;8.108;2024-03-22T08:18:31;12.73;;;5.77;;
4519;SDS011;2272;49.226;8.108;2024-03-22T08:20:58;6.23;;;4.90;;
4519;SDS011;2272;49.226;8.108;2024-03-22T08:23:26;10.63;;;4.37;;
4519;SDS011;2272;49.226;8.108;2024-03-22T08:25:52;9.73;;;5.40;;
4519;SDS011;2272;49.226;8.108;2024-03-22T08:28:18;10.77;;;5.93;;
4519;SDS011;2272;49.226;8.108;2024-03-22T08:30:45;23.07;;;10.23;;
4519;SDS011;2272;49.226;8.108;2024-03-22T08:33:11;6.17;;;4.60;;
4519;SDS011;2272;49.226;8.108;2024-03-22T08:35:38;9.30;;;4.97;;
4519;SDS011;2272;49.226;8.108;2024-03-22T08:38:04;7.80;;;5.87;;
4519;SDS011;2272;49.226;8.108;2024-03-22T08:40:36;17.33;;;10.00;;
4519;SDS011;2272;49.226;8.108;2024-03-22T08:43:02;17.77;;;10.40;;
4519;SDS011;2272;49.226;8.108;2024-03-22T08:45:29;15.20;;;6.90;;
4519;SDS011;2272;49.226;8.108;2024-03-22T08:47:55;13.20;;;6.40;;
4519;SDS011;2272;49.226;8.108;2024-03-22T08:50:22;9.10;;;5.70;;
4519;SDS011;2272;49.226;8.108;2024-03-22T08:52:48;9.57;;;6.07;;
4519;SDS011;2272;49.226;8.108;2024-03-22T08:55:15;6.67;;;5.13;;
4519;SDS011;2272;49.226;8.108;2024-03-22T08:57:42;7.97;;;5.20;;
4519;SDS011;2272;49.226;8.108;2024-03-22T09:00:10;10.27;;;5.60;;
4519;SDS011;2272;49.226;8.108;2024-03-22T09:02:36;7.00;;;4.50;;
4519;SDS011;2272;49.226;8.108;2024-03-22T09:05:04;5.20;;;4.70;;
4519;SDS011;2272;49.226;8.108;2024-03-22T09:07:30;14.40;;;8.97;;
4519;SDS011;2272;49.226;8.108;2024-03-22T09:09:57;8.17;;;7.30;;
4519;SDS011;2272;49.226;8.108;2024-03-22T09:12:24;29.07;;;14.57;;
4519;SDS011;2272;49.226;8.108;2024-03-22T09:14:51;19.93;;;12.00;;
4519;SDS011;2272;49.226;8.108;2024-03-22T09:17:18;30.50;;;16.10;;
4519;SDS011;2272;49.226;8.108;2024-03-22T09:19:43;21.73;;;13.90;;
4519;SDS011;2272;49.226;8.108;2024-03-22T09:22:10;15.90;;;10.87;;
4519;SDS011;2272;49.226;8.108;2024-03-22T09:24:36;24.73;;;16.20;;
4519;SDS011;2272;49.226;8.108;2024-03-22T09:27:03;10.70;;;8.47;;
4519;SDS011;2272;49.226;8.108;2024-03-22T09:29:33;7.93;;;6.20;;
4519;SDS011;2272;49.226;8.108;2024-03-22T09:32:02;6.47;;;5.37;;
4519;SDS011;2272;49.226;8.108;2024-03-22T09:34:28;5.97;;;4.30;;
4519;SDS011;2272;49.226;8.108;2024-03-22T09:36:56;8.17;;;6.77;;
4519;SDS011;2272;49.226;8.108;2024-03-22T09:39:23;8.33;;;5.40;;
4519;SDS011;2272;49.226;8.108;2024-03-22T09:41:50;7.63;;;5.17;;
4519;SDS011;2272;49.226;8.108;2024-03-22T09:44:18;7.60;;;5.93;;
4519;SDS011;2272;49.226;8.108;2024-03-22T09:46:44;11.87;;;7.40;;
4519;SDS011;2272;49.226;8.108;2024-03-22T09:49:14;10.03;;;7.00;;
4519;SDS011;2272;49.226;8.108;2024-03-22T09:51:42;8.17;;;5.70;;
4519;SDS011;2272;49.226;8.108;2024-03-22T09:54:09;4.17;;;3.77;;
4519;SDS011;2272;49.226;8.108;2024-03-22T09:56:35;9.33;;;4.67;;
4519;SDS011;2272;49.226;8.108;2024-03-22T09:59:05;8.27;;;4.60;;
4519;SDS011;2272;49.226;8.108;2024-03-22T10:01:31;9.30;;;4.50;;
4519;SDS011;2272;49.226;8.108;2024-03-22T10:03:59;5.00;;;3.87;;
4519;SDS011;2272;49.226;8.108;2024-03-22T10:06:26;5.93;;;4.60;;
4519;SDS011;2272;49.226;8.108;2024-03-22T10:08:57;11.10;;;4.57;;
4519;SDS011;2272;49.226;8.108;2024-03-22T10:11:25;10.93;;;4.50;;
4519;SDS011;2272;49.226;8.108;2024-03-22T10:13:53;5.90;;;5.30;;
4519;SDS011;2272;49.226;8.108;2024-03-22T10:16:20;9.73;;;6.70;;
4519;SDS011;2272;49.226;8.108;2024-03-22T10:18:47;8.10;;;6.23;;
4519;SDS011;2272;49.226;8.108;2024-03-22T10:21:16;10.20;;;6.53;;
4519;SDS011;2272;49.226;8.108;2024-03-22T10:23:48;5.50;;;4.93;;
4519;SDS011;2272;49.226;8.108;2024-03-22T10:26:15;5.63;;;4.53;;
4519;SDS011;2272;49.226;8.108;2024-03-22T10:28:46;7.43;;;5.10;;
4519;SDS011;2272;49.226;8.108;2024-03-22T10:31:12;9.03;;;6.77;;
4519;SDS011;2272;49.226;8.108;2024-03-22T10:33:40;5.87;;;4.90;;
4519;SDS011;2272;49.226;8.108;2024-03-22T10:36:06;5.93;;;5.40;;
4519;SDS011;2272;49.226;8.108;2024-03-22T10:38:33;10.10;;;6.93;;
4519;SDS011;2272;49.226;8.108;2024-03-22T10:41:03;5.20;;;4.60;;
4519;SDS011;2272;49.226;8.108;2024-03-22T10:43:30;5.50;;;4.30;;
4519;SDS011;2272;49.226;8.108;2024-03-22T10:46:01;6.93;;;4.63;;
4519;SDS011;2272;49.226;8.108;2024-03-22T10:48:29;3.50;;;3.20;;
4519;SDS011;2272;49.226;8.108;2024-03-22T10:50:55;9.43;;;7.43;;
4519;SDS011;2272;49.226;8.108;2024-03-22T10:53:25;11.20;;;6.67;;
4519;SDS011;2272;49.226;8.108;2024-03-22T10:55:52;6.20;;;5.47;;
4519;SDS011;2272;49.226;8.108;2024-03-22T10:58:22;6.20;;;5.10;;
4519;SDS011;2272;49.226;8.108;2024-03-22T11:00:51;6.03;;;3.93;;
4519;SDS011;2272;49.226;8.108;2024-03-22T11:03:19;5.87;;;5.27;;
4519;SDS011;2272;49.226;8.108;2024-03-22T11:05:45;7.40;;;5.03;;
4519;SDS011;2272;49.226;8.108;2024-03-22T11:08:12;5.53;;;4.70;;
4519;SDS011;2272;49.226;8.108;2024-03-22T11:10:39;4.20;;;3.60;;
4519;SDS011;2272;49.226;8.108;2024-03-22T11:13:07;5.27;;;4.50;;
4519;SDS011;2272;49.226;8.108;2024-03-22T11:15:35;7.30;;;4.30;;
4519;SDS011;2272;49.226;8.108;2024-03-22T11:18:03;4.20;;;2.80;;
4519;SDS011;2272;49.226;8.108;2024-03-22T11:20:29;7.93;;;4.40;;
4519;SDS011;2272;49.226;8.108;2024-03-22T11:22:56;3.77;;;3.57;;
4519;SDS011;2272;49.226;8.108;2024-03-22T11:25:22;7.03;;;4.73;;
4519;SDS011;2272;49.226;8.108;2024-03-22T11:27:49;5.10;;;4.10;;
4519;SDS011;2272;49.226;8.108;2024-03-22T11:30:15;6.47;;;4.47;;
4519;SDS011;2272;49.226;8.108;2024-03-22T11:32:44;7.80;;;5.03;;
4519;SDS011;2272;49.226;8.108;2024-03-22T11:35:10;11.60;;;4.73;;
4519;SDS011;2272;49.226;8.108;2024-03-22T11:37:38;6.63;;;4.10;;
4519;SDS011;2272;49.226;8.108;2024-03-22T11:40:04;3.60;;;3.30;;
4519;SDS011;2272;49.226;8.108;2024-03-22T11:42:33;4.53;;;4.13;;
4519;SDS011;2272;49.226;8.108;2024-03-22T11:45:00;13.47;;;7.97;;
4519;SDS011;2272;49.226;8.108;2024-03-22T11:47:28;7.10;;;5.07;;
4519;SDS011;2272;49.226;8.108;2024-03-22T11:49:56;11.13;;;8.33;;
4519;SDS011;2272;49.226;8.108;2024-03-22T11:52:24;10.80;;;7.40;;
4519;SDS011;2272;49.226;8.108;2024-03-22T11:54:50;6.67;;;5.20;;
4519;SDS011;2272;49.226;8.108;2024-03-22T11:57:18;10.03;;;5.33;;
4519;SDS011;2272;49.226;8.108;2024-03-22T11:59:44;8.70;;;5.37;;
4519;SDS011;2272;49.226;8.108;2024-03-22T12:02:11;6.30;;;5.17;;
4519;SDS011;2272;49.226;8.108;2024-03-22T12:04:40;5.10;;;4.60;;
4519;SDS011;2272;49.226;8.108;2024-03-22T12:07:10;7.77;;;4.20;;
4519;SDS011;2272;49.226;8.108;2024-03-22T12:09:37;5.40;;;4.90;;
4519;SDS011;2272;49.226;8.108;2024-03-22T12:12:04;4.50;;;4.13;;
4519;SDS011;2272;49.226;8.108;2024-03-22T12:14:31;4.80;;;4.40;;
4519;SDS011;2272;49.226;8.108;2024-03-22T12:16:58;8.00;;;4.43;;
4519;SDS011;2272;49.226;8.108;2024-03-22T12:19:24;4.60;;;4.07;;
4519;SDS011;2272;49.226;8.108;2024-03-22T12:21:51;8.70;;;4.70;;
4519;SDS011;2272;49.226;8.108;2024-03-22T12:24:18;7.10;;;4.40;;
4519;SDS011;2272;49.226;8.108;2024-03-22T12:26:46;9.33;;;4.17;;
4519;SDS011;2272;49.226;8.108;2024-03-22T12:29:12;10.97;;;7.20;;
4519;SDS011;2272;49.226;8.108;2024-03-22T12:31:39;10.73;;;4.80;;
4519;SDS011;2272;49.226;8.108;2024-03-22T12:34:06;5.40;;;4.67;;
4519;SDS011;2272;49.226;8.108;2024-03-22T12:36:33;6.93;;;5.17;;
4519;SDS011;2272;49.226;8.108;2024-03-22T12:38:59;7.43;;;4.13;;
4519;SDS011;2272;49.226;8.108;2024-03-22T12:41:28;12.43;;;6.47;;
4519;SDS011;2272;49.226;8.108;2024-03-22T12:43:54;7.80;;;4.97;;
4519;SDS011;2272;49.226;8.108;2024-03-22T12:46:21;4.40;;;4.10;;
4519;SDS011;2272;49.226;8.108;2024-03-22T12:48:47;5.73;;;4.50;;
4519;SDS011;2272;49.226;8.108;2024-03-22T12:51:14;8.23;;;5.47;;
4519;SDS011;2272;49.226;8.108;2024-03-22T12:53:41;4.03;;;3.37;;
4519;SDS011;2272;49.226;8.108;2024-03-22T12:56:08;7.53;;;5.43;;
4519;SDS011;2272;49.226;8.108;2024-03-22T12:58:35;5.20;;;4.70;;
4519;SDS011;2272;49.226;8.108;2024-03-22T13:01:02;8.07;;;5.77;;
4519;SDS011;2272;49.226;8.108;2024-03-22T13:03:30;4.87;;;4.40;;
4519;SDS011;2272;49.226;8.108;2024-03-22T13:05:57;6.70;;;3.80;;
4519;SDS011;2272;49.226;8.108;2024-03-22T13:08:23;5.60;;;4.60;;
4519;SDS011;2272;49.226;8.108;2024-03-22T13:10:50;5.33;;;4.37;;
4519;SDS011;2272;49.226;8.108;2024-03-22T13:13:17;4.70;;;4.30;;
4519;SDS011;2272;49.226;8.108;2024-03-22T13:15:46;8.20;;;4.33;;
4519;SDS011;2272;49.226;8.108;2024-03-22T13:18:12;4.10;;;3.60;;
4519;SDS011;2272;49.226;8.108;2024-03-22T13:20:39;8.07;;;3.83;;
4519;SDS011;2272;49.226;8.108;2024-03-22T13:23:05;7.53;;;3.80;;
4519;SDS011;2272;49.226;8.108;2024-03-22T13:25:34;4.20;;;3.87;;
4519;SDS011;2272;49.226;8.108;2024-03-22T13:28:01;3.53;;;3.23;;
4519;SDS011;2272;49.226;8.108;2024-03-22T13:30:30;4.57;;;3.50;;
4519;SDS011;2272;49.226;8.108;2024-03-22T13:32:57;5.90;;;3.67;;
4519;SDS011;2272;49.226;8.108;2024-03-22T13:35:25;4.40;;;4.00;;
4519;SDS011;2272;49.226;8.108;2024-03-22T13:37:51;2.70;;;2.50;;
4519;SDS011;2272;49.226;8.108;2024-03-22T13:40:18;4.10;;;3.70;;
4519;SDS011;2272;49.226;8.108;2024-03-22T13:42:44;8.60;;;3.43;;
4519;SDS011;2272;49.226;8.108;2024-03-22T13:45:12;3.90;;;3.00;;
4519;SDS011;2272;49.226;8.108;2024-03-22T13:47:38;8.63;;;4.37;;
4519;SDS011;2272;49.226;8.108;2024-03-22T13:50:07;4.00;;;3.60;;
4519;SDS011;2272;49.226;8.108;2024-03-22T13:52:33;6.30;;;4.37;;
4519;SDS011;2272;49.226;8.108;2024-03-22T13:55:01;4.93;;;4.43;;
4519;SDS011;2272;49.226;8.108;2024-03-22T13:57:27;5.37;;;4.87;;
4519;SDS011;2272;49.226;8.108;2024-03-22T13:59:54;6.17;;;4.70;;
4519;SDS011;2272;49.226;8.108;2024-03-22T14:02:20;12.27;;;4.50;;
4519;SDS011;2272;49.226;8.108;2024-03-22T14:04:47;5.77;;;5.23;;
4519;SDS011;2272;49.226;8.108;2024-03-22T14:07:15;9.70;;;6.03;;
4519;SDS011;2272;49.226;8.108;2024-03-22T14:09:42;7.67;;;4.97;;
4519;SDS011;2272;49.226;8.108;2024-03-22T14:12:08;11.20;;;7.00;;
4519;SDS011;2272;49.226;8.108;2024-03-22T14:14:35;9.30;;;7.00;;
4519;SDS011;2272;49.226;8.108;2024-03-22T14:17:01;16.30;;;6.50;;
4519;SDS011;2272;49.226;8.108;2024-03-22T14:19:29;9.00;;;7.13;;
4519;SDS011;2272;49.226;8.108;2024-03-22T14:21:55;11.30;;;6.83;;
4519;SDS011;2272;49.226;8.108;2024-03-22T14:24:23;12.00;;;7.67;;
4519;SDS011;2272;49.226;8.108;2024-03-22T14:26:49;11.13;;;7.50;;
4519;SDS011;2272;49.226;8.108;2024-03-22T14:29:16;9.20;;;7.87;;
4519;SDS011;2272;49.226;8.108;2024-03-22T14:31:44;16.13;;;7.83;;
4519;SDS011;2272;49.226;8.108;2024-03-22T14:34:11;9.27;;;7.37;;
4519;SDS011;2272;49.226;8.108;2024-03-22T14:36:37;11.90;;;6.80;;
4519;SDS011;2272;49.226;8.108;2024-03-22T14:39:04;15.50;;;8.60;;
4519;SDS011;2272;49.226;8.108;2024-03-22T14:41:32;9.83;;;6.73;;
4519;SDS011;2272;49.226;8.108;2024-03-22T14:43:59;16.67;;;9.30;;
4519;SDS011;2272;49.226;8.108;2024-03-22T14:46:26;7.43;;;6.73;;
4519;SDS011;2272;49.226;8.108;2024-03-22T14:48:54;10.83;;;6.10;;
4519;SDS011;2272;49.226;8.108;2024-03-22T14:51:20;10.97;;;8.60;;
4519;SDS011;2272;49.226;8.108;2024-03-22T14:53:47;12.53;;;9.10;;
4519;SDS011;2272;49.226;8.108;2024-03-22T14:56:14;14.27;;;10.20;;
4519;SDS011;2272;49.226;8.108;2024-03-22T14:58:43;11.87;;;8.07;;
4519;SDS011;2272;49.226;8.108;2024-03-22T15:01:10;11.00;;;8.20;;
4519;SDS011;2272;49.226;8.108;2024-03-22T15:03:37;22.00;;;13.20;;
4519;SDS011;2272;49.226;8.108;2024-03-22T15:06:05;18.47;;;7.10;;
4519;SDS011;2272;49.226;8.108;2024-03-22T15:08:32;9.73;;;7.20;;
4519;SDS011;2272;49.226;8.108;2024-03-22T15:10:58;9.87;;;7.80;;